Time;durP1;ratioP1;P1;durP2;ratioP2;P2;SDS_P1;SDS_P2;PMS_P1;PMS_P2;Temp;Humidity;BMP_temperature;BMP_pressure;BME280_temperature;BME280_humidity;BME280_pressure;Samples;Min_cycle;Max_cycle;Signal;HPM_P1;HPM_P2
2021/08/08 00:00:59;;;;;;;5.12;3.00;;;;;;;19.64;66.82;101154.95;1705991;84;21816;-74
2021/08/08 00:03:26;;;;;;;6.05;2.83;;;;;;;19.62;66.95;101158.23;1706319;84;20920;-74
2021/08/08 00:05:53;;;;;;;5.67;3.10;;;;;;;19.61;66.98;101160.99;1706919;83;21006;-74
2021/08/08 00:08:20;;;;;;;4.15;2.98;;;;;;;19.61;67.04;101164.46;1708580;84;21002;-73
2021/08/08 00:10:47;;;;;;;3.58;3.00;;;;;;;19.61;67.07;101162.31;1708333;84;21764;-74
2021/08/08 00:13:15;;;;;;;2.58;2.37;;;;;;;19.58;67.10;101158.66;1708787;84;21146;-74
2021/08/08 00:15:43;;;;;;;7.60;3.00;;;;;;;19.54;67.21;101156.32;1708469;84;21479;-73
2021/08/08 00:18:09;;;;;;;5.95;2.58;;;;;;;19.53;67.29;101159.91;1708536;83;21051;-74
2021/08/08 00:20:37;;;;;;;3.95;2.67;;;;;;;19.51;67.37;101154.46;1708484;84;20900;-74
2021/08/08 00:23:04;;;;;;;5.30;2.72;;;;;;;19.51;67.46;101159.73;1708537;84;21055;-75
2021/08/08 00:25:31;;;;;;;3.37;2.55;;;;;;;19.50;67.52;101162.01;1708697;84;21163;-74
2021/08/08 00:27:59;;;;;;;4.50;2.80;;;;;;;19.49;67.51;101161.69;1708298;84;21526;-76
2021/08/08 00:30:25;;;;;;;2.95;2.60;;;;;;;19.48;67.51;101152.95;1708182;83;20955;-75
2021/08/08 00:32:52;;;;;;;4.72;3.50;;;;;;;19.41;67.42;101153.20;1708225;84;21047;-76
2021/08/08 00:35:21;;;;;;;9.13;3.37;;;;;;;19.32;67.80;101149.27;1708557;83;20976;-74
2021/08/08 00:37:50;;;;;;;5.10;3.00;;;;;;;19.26;68.02;101149.37;1708458;84;21947;-75
2021/08/08 00:40:18;;;;;;;3.80;2.90;;;;;;;19.23;68.11;101143.56;1708525;84;20875;-74
2021/08/08 00:42:47;;;;;;;5.78;2.92;;;;;;;19.22;68.18;101151.09;1708461;84;20924;-74
2021/08/08 00:45:16;;;;;;;5.67;3.05;;;;;;;19.23;68.29;101147.02;1708241;84;21507;-75
2021/08/08 00:47:43;;;;;;;4.72;3.10;;;;;;;19.22;68.45;101151.94;1708612;84;20992;-73
2021/08/08 00:50:12;;;;;;;4.78;3.10;;;;;;;19.21;68.50;101145.52;1708346;84;21978;-73
2021/08/08 00:52:40;;;;;;;5.80;3.00;;;;;;;19.17;68.61;101146.29;1708187;84;21569;-73
2021/08/08 00:55:08;;;;;;;5.83;3.40;;;;;;;19.14;68.84;101149.69;1708462;84;20942;-73
2021/08/08 00:57:35;;;;;;;6.50;3.05;;;;;;;19.11;68.83;101149.98;1711986;83;21549;-73
2021/08/08 01:00:07;;;;;;;9.50;3.02;;;;;;;19.08;68.94;101151.08;1708373;84;20987;-73
2021/08/08 01:02:38;;;;;;;6.65;3.17;;;;;;;19.06;68.98;101154.34;1708476;84;21131;-73
2021/08/08 01:05:11;;;;;;;9.38;3.17;;;;;;;19.03;69.19;101165.16;1711896;83;20968;-73
2021/08/08 01:07:47;;;;;;;7.42;3.45;;;;;;;18.99;69.42;101159.35;1710396;83;21424;-73
2021/08/08 01:10:15;;;;;;;6.15;3.25;;;;;;;18.97;69.58;101165.25;1710521;83;20967;-72
2021/08/08 01:12:42;;;;;;;3.98;3.27;;;;;;;18.95;69.70;101164.55;1710554;83;21586;-73
2021/08/08 01:15:09;;;;;;;7.78;3.00;;;;;;;18.93;69.74;101168.30;1710560;84;21510;-74
2021/08/08 01:17:38;;;;;;;5.05;2.85;;;;;;;18.91;69.89;101172.41;1710549;84;21421;-74
2021/08/08 01:20:10;;;;;;;5.10;2.70;;;;;;;18.90;69.99;101173.84;1710458;83;21502;-73
2021/08/08 01:22:54;;;;;;;5.70;3.02;;;;;;;18.91;70.08;101175.52;1710521;83;21047;-73
2021/08/08 01:25:22;;;;;;;6.65;3.27;;;;;;;18.92;70.12;101169.29;1710721;83;20852;-73
2021/08/08 01:27:55;;;;;;;4.97;3.33;;;;;;;18.92;70.12;101169.29;1710760;83;21128;-74
2021/08/08 01:30:23;;;;;;;5.28;3.62;;;;;;;18.90;70.12;101168.11;1710473;83;21522;-72
2021/08/08 01:32:50;;;;;;;4.25;2.72;;;;;;;18.86;70.20;101171.98;1710807;83;21035;-72
2021/08/08 01:35:18;;;;;;;5.55;2.90;;;;;;;18.84;70.37;101167.84;1710512;83;20883;-73
2021/08/08 01:37:46;;;;;;;4.78;3.25;;;;;;;18.84;70.49;101167.36;1710900;83;20988;-73
2021/08/08 01:40:22;;;;;;;7.00;3.35;;;;;;;18.88;70.55;101172.69;1710640;83;21127;-72
2021/08/08 01:42:49;;;;;;;8.20;3.40;;;;;;;18.90;70.55;101173.84;1707020;83;21549;-72
2021/08/08 01:45:16;;;;;;;7.53;3.55;;;;;;;18.92;70.50;101174.55;1710633;83;20963;-72
2021/08/08 01:47:50;;;;;;;4.85;3.42;;;;;;;18.92;70.47;101180.61;1710433;83;20964;-72
2021/08/08 01:50:19;;;;;;;6.83;3.20;;;;;;;18.93;70.47;101185.39;1710739;83;20959;-71
2021/08/08 01:52:45;;;;;;;9.10;3.35;;;;;;;18.92;70.35;101185.07;1690627;83;21195;-72
2021/08/08 01:55:16;;;;;;;6.58;3.33;;;;;;;18.91;70.31;101186.87;1710611;83;20972;-72
2021/08/08 01:57:57;;;;;;;5.67;3.35;;;;;;;18.89;70.32;101183.53;1709937;83;21574;-72
2021/08/08 02:00:25;;;;;;;6.40;3.47;;;;;;;18.88;70.43;101188.47;1690614;83;21542;-73
2021/08/08 02:02:55;;;;;;;5.78;3.35;;;;;;;18.87;70.52;101188.11;1710692;83;21538;-72
2021/08/08 02:05:27;;;;;;;6.85;3.40;;;;;;;18.87;70.72;101196.00;1710448;83;21222;-74
2021/08/08 02:07:54;;;;;;;7.33;3.55;;;;;;;18.86;70.72;101204.02;1714061;83;20987;-73
2021/08/08 02:10:21;;;;;;;6.22;4.33;;;;;;;18.82;70.84;101211.39;1710693;83;20900;-72
2021/08/08 02:12:49;;;;;;;6.67;3.55;;;;;;;18.83;70.84;101214.82;1710624;83;21044;-72
2021/08/08 02:15:17;;;;;;;6.03;3.80;;;;;;;18.81;70.72;101210.20;1710841;83;20916;-72
2021/08/08 02:17:47;;;;;;;7.12;3.40;;;;;;;18.77;70.61;101207.02;1710670;83;21585;-73
2021/08/08 02:20:17;;;;;;;4.75;3.60;;;;;;;18.73;70.78;101216.66;1710386;83;21031;-73
2021/08/08 02:22:46;;;;;;;9.13;3.77;;;;;;;18.70;71.09;101223.00;1710670;83;20936;-73
2021/08/08 02:25:15;;;;;;;6.67;4.03;;;;;;;18.66;71.18;101215.55;1710496;83;20991;-72
2021/08/08 02:27:42;;;;;;;10.25;3.72;;;;;;;18.65;71.30;101213.88;1710395;83;21569;-73
2021/08/08 02:30:11;;;;;;;6.47;4.25;;;;;;;18.64;71.43;101209.11;1710124;83;21527;-73
2021/08/08 02:32:38;;;;;;;8.85;3.70;;;;;;;18.65;71.45;101216.03;1710861;83;20892;-74
2021/08/08 02:35:08;;;;;;;8.85;4.45;;;;;;;18.65;71.42;101219.14;1710736;83;21459;-73
2021/08/08 02:37:35;;;;;;;7.50;4.58;;;;;;;18.66;71.58;101230.84;1710723;83;20971;-73
2021/08/08 02:40:05;;;;;;;6.78;4.20;;;;;;;18.68;71.61;101239.89;1710597;83;20975;-73
2021/08/08 02:42:32;;;;;;;7.78;4.60;;;;;;;18.69;71.70;101233.67;1710709;83;21134;-73
2021/08/08 02:44:59;;;;;;;5.05;4.05;;;;;;;18.68;71.76;101235.47;1714277;83;21012;-74
2021/08/08 02:47:29;;;;;;;5.90;4.30;;;;;;;18.67;71.84;101234.28;1710512;83;21047;-73
2021/08/08 02:49:57;;;;;;;8.78;4.00;;;;;;;18.65;71.96;101232.28;1710744;83;20993;-73
2021/08/08 02:52:26;;;;;;;6.78;4.15;;;;;;;18.63;72.02;101239.48;1710522;83;20996;-73
2021/08/08 02:54:54;;;;;;;5.83;4.00;;;;;;;18.62;72.02;101248.34;1710611;83;21996;-73
2021/08/08 02:57:21;;;;;;;6.28;4.17;;;;;;;18.60;71.95;101241.92;1710439;83;20920;-74
2021/08/08 02:59:49;;;;;;;5.22;4.30;;;;;;;18.58;71.47;101249.09;1710360;83;20984;-74
2021/08/08 03:02:16;;;;;;;7.28;3.83;;;;;;;18.51;71.54;101249.30;1710608;83;21000;-74
2021/08/08 03:04:45;;;;;;;7.40;4.22;;;;;;;18.48;71.73;101243.80;1710598;83;20900;-74
2021/08/08 03:07:12;;;;;;;5.83;4.17;;;;;;;18.44;71.92;101240.30;1707732;82;21625;-75
2021/08/08 03:09:39;;;;;;;6.35;3.90;;;;;;;18.41;72.19;101234.00;1705912;84;20928;-75
2021/08/08 03:12:06;;;;;;;6.05;4.42;;;;;;;18.37;72.26;101238.70;1705796;84;20948;-75
2021/08/08 03:14:35;;;;;;;5.22;4.33;;;;;;;18.31;72.39;101247.13;1705958;83;20929;-73
2021/08/08 03:17:03;;;;;;;5.28;4.25;;;;;;;18.23;72.74;101251.38;1706032;84;20967;-73
2021/08/08 03:19:31;;;;;;;6.25;4.25;;;;;;;18.15;73.18;101254.70;1706223;83;20932;-74
2021/08/08 03:21:58;;;;;;;4.62;3.67;;;;;;;18.09;73.48;101247.37;1709559;83;21014;-74
2021/08/08 03:24:26;;;;;;;6.45;3.98;;;;;;;18.07;73.69;101248.45;1709432;83;20881;-74
2021/08/08 03:26:54;;;;;;;7.25;4.15;;;;;;;18.04;73.88;101256.12;1705716;84;20916;-74
2021/08/08 03:29:20;;;;;;;4.90;3.80;;;;;;;18.04;74.06;101264.00;1706056;84;20988;-74
2021/08/08 03:31:48;;;;;;;4.10;3.70;;;;;;;18.08;74.12;101266.71;1706050;84;21813;-73
2021/08/08 03:34:14;;;;;;;10.40;3.77;;;;;;;18.10;74.28;101258.68;1706009;84;20940;-73
2021/08/08 03:36:42;;;;;;;7.45;3.98;;;;;;;18.13;74.41;101255.30;1705884;84;21016;-74
2021/08/08 03:39:08;;;;;;;5.75;3.85;;;;;;;18.17;74.52;101255.87;1706028;84;20980;-74
2021/08/08 03:41:35;;;;;;;3.62;3.33;;;;;;;18.20;74.58;101256.91;1706106;84;20988;-74
2021/08/08 03:44:01;;;;;;;4.15;3.58;;;;;;;18.22;74.72;101271.56;1706082;84;21140;-74
2021/08/08 03:46:28;;;;;;;6.55;4.53;;;;;;;18.24;74.77;101271.45;1705773;84;21518;-78
2021/08/08 03:48:56;;;;;;;6.20;3.95;;;;;;;18.26;74.76;101277.38;1706178;84;21026;-75
2021/08/08 03:51:23;;;;;;;6.22;3.70;;;;;;;18.24;74.87;101272.28;1705943;84;21577;-77
2021/08/08 03:53:50;;;;;;;5.70;3.50;;;;;;;18.23;75.02;101273.23;1706070;84;20893;-76
2021/08/08 03:56:18;;;;;;;9.18;3.80;;;;;;;18.23;75.07;101270.61;1706022;84;21153;-73
2021/08/08 03:58:44;;;;;;;5.53;3.70;;;;;;;18.28;75.13;101270.22;1705975;84;21004;-74
2021/08/08 04:01:11;;;;;;;5.75;3.75;;;;;;;18.35;75.17;101267.36;1705817;84;21039;-74
2021/08/08 04:03:37;;;;;;;4.37;3.90;;;;;;;18.38;74.90;101265.30;1705894;84;21072;-76
2021/08/08 04:06:05;;;;;;;6.33;3.67;;;;;;;18.43;74.75;101270.99;1705861;82;20996;-75
2021/08/08 04:08:32;;;;;;;6.85;3.80;;;;;;;18.48;74.62;101271.88;1706013;84;21189;-74
2021/08/08 04:11:00;;;;;;;5.60;3.45;;;;;;;18.51;74.67;101271.63;1709374;83;21521;-74
2021/08/08 04:13:28;;;;;;;7.87;3.87;;;;;;;18.58;74.91;101266.66;1705877;84;21442;-74
2021/08/08 04:15:54;;;;;;;12.05;3.95;;;;;;;18.65;74.92;101265.98;1705873;83;20943;-74
2021/08/08 04:18:22;;;;;;;9.08;4.00;;;;;;;18.70;74.63;101262.95;1706088;84;21066;-74
2021/08/08 04:20:48;;;;;;;7.60;3.72;;;;;;;18.75;74.38;101268.13;1706059;84;21092;-74
2021/08/08 04:23:16;;;;;;;5.85;3.90;;;;;;;18.80;74.32;101265.90;1706017;84;21518;-74
2021/08/08 04:25:45;;;;;;;5.92;4.00;;;;;;;18.85;74.10;101265.49;1706116;84;21055;-74
2021/08/08 04:28:13;;;;;;;4.87;4.20;;;;;;;18.91;73.69;101260.51;1706000;84;21004;-75
2021/08/08 04:30:40;;;;;;;7.05;3.60;;;;;;;18.94;73.22;101265.97;1709674;82;21455;-77
2021/08/08 04:33:06;;;;;;;4.47;3.80;;;;;;;18.96;73.15;101263.53;1706171;84;21138;-76
2021/08/08 04:35:33;;;;;;;6.53;3.62;;;;;;;18.97;73.06;101261.73;1705881;83;21549;-73
2021/08/08 04:38:01;;;;;;;6.97;3.83;;;;;;;18.99;73.08;101269.83;1705872;84;21028;-72
2021/08/08 04:40:29;;;;;;;7.72;4.20;;;;;;;19.03;73.11;101272.53;1705958;84;21423;-75
2021/08/08 04:42:56;;;;;;;5.10;3.40;;;;;;;19.10;73.45;101273.28;1706070;84;21007;-73
2021/08/08 04:45:23;;;;;;;5.45;4.12;;;;;;;19.17;73.24;101280.95;1705955;84;21136;-75
2021/08/08 04:47:51;;;;;;;7.45;3.92;;;;;;;19.23;73.22;101277.76;1705842;84;21601;-74
2021/08/08 04:50:19;;;;;;;6.67;3.90;;;;;;;19.28;72.98;101278.15;1706053;83;20943;-73
2021/08/08 04:52:51;;;;;;;5.72;4.22;;;;;;;19.33;73.16;101279.89;1705986;83;20944;-73
2021/08/08 04:55:18;;;;;;;5.37;3.67;;;;;;;19.40;73.32;101278.38;1706172;84;20861;-73
2021/08/08 04:57:45;;;;;;;8.23;3.67;;;;;;;19.50;73.33;101283.10;1706009;84;22065;-74
2021/08/08 05:00:14;;;;;;;8.00;4.00;;;;;;;19.60;73.30;101286.54;1705566;84;21001;-74
2021/08/08 05:02:49;;;;;;;9.08;4.22;;;;;;;19.71;72.97;101295.59;1705872;84;21649;-73
2021/08/08 05:05:16;;;;;;;5.12;4.00;;;;;;;19.81;72.78;101288.48;1706027;84;20971;-73
2021/08/08 05:07:45;;;;;;;5.05;3.67;;;;;;;19.90;72.50;101288.09;1708248;83;21503;-75
2021/08/08 05:10:14;;;;;;;14.80;4.05;;;;;;;19.99;72.00;101288.05;1710500;83;21799;-72
2021/08/08 05:12:42;;;;;;;9.78;3.95;;;;;;;20.07;71.66;101286.80;1710293;83;20995;-75
2021/08/08 05:15:11;;;;;;;11.00;3.72;;;;;;;20.18;71.33;101292.38;1710679;83;21050;-75
2021/08/08 05:17:37;;;;;;;9.75;4.00;;;;;;;20.26;71.10;101299.06;1710384;84;21506;-76
2021/08/08 05:20:06;;;;;;;5.95;4.03;;;;;;;20.36;70.87;101295.89;1710488;84;20924;-74
2021/08/08 05:22:33;;;;;;;14.58;4.10;;;;;;;20.44;70.42;101292.03;1714354;83;21156;-73
2021/08/08 05:25:01;;;;;;;6.35;3.70;;;;;;;20.54;70.02;101297.23;1710608;83;20896;-74
2021/08/08 05:27:28;;;;;;;7.70;3.90;;;;;;;20.64;68.99;101298.00;1710517;84;21050;-75
2021/08/08 05:29:54;;;;;;;5.55;3.50;;;;;;;20.77;68.41;101297.10;1710447;84;21008;-74
2021/08/08 05:32:21;;;;;;;5.50;3.62;;;;;;;20.88;67.86;101304.80;1710555;84;20928;-75
2021/08/08 05:34:47;;;;;;;6.42;3.35;;;;;;;20.97;67.07;101299.09;1710497;83;21798;-74
2021/08/08 05:37:14;;;;;;;10.00;4.00;;;;;;;21.09;66.22;101297.92;1710324;84;20939;-73
2021/08/08 05:39:41;;;;;;;8.78;3.50;;;;;;;21.22;65.42;101295.67;1710481;84;20908;-75
2021/08/08 05:42:07;;;;;;;5.30;3.33;;;;;;;21.33;64.90;101308.64;1710476;83;21554;-73
2021/08/08 05:44:37;;;;;;;3.98;2.95;;;;;;;21.44;64.02;101303.08;1710610;83;21014;-72
2021/08/08 05:47:07;;;;;;;6.50;3.85;;;;;;;21.55;63.59;101306.80;1710530;83;21865;-76
2021/08/08 05:49:34;;;;;;;4.85;3.90;;;;;;;21.67;63.34;101305.19;1714021;83;21047;-76
2021/08/08 05:52:02;;;;;;;5.50;3.15;;;;;;;21.78;63.13;101308.89;1710553;83;21028;-75
2021/08/08 05:54:29;;;;;;;4.12;2.90;;;;;;;21.84;62.71;101306.94;1710597;84;20940;-73
2021/08/08 05:56:57;;;;;;;4.37;3.52;;;;;;;21.91;61.45;101302.72;1710507;84;21686;-76
2021/08/08 05:59:23;;;;;;;3.30;2.80;;;;;;;21.98;61.12;101305.90;1710512;84;21139;-75
2021/08/08 06:01:50;;;;;;;5.85;3.08;;;;;;;22.08;60.94;101307.89;1710336;84;20920;-73
2021/08/08 06:04:18;;;;;;;6.28;2.95;;;;;;;22.17;60.63;101307.45;1710505;84;20912;-74
2021/08/08 06:06:45;;;;;;;11.18;3.45;;;;;;;22.23;60.07;101302.83;1710245;83;21518;-76
2021/08/08 06:09:12;;;;;;;5.50;3.22;;;;;;;22.32;59.66;101305.00;1706054;84;20971;-73
2021/08/08 06:11:39;;;;;;;4.12;2.87;;;;;;;22.41;59.46;101305.34;1705974;84;21064;-76
2021/08/08 06:14:06;;;;;;;4.60;3.20;;;;;;;22.50;58.17;101303.88;1706464;84;20936;-75
2021/08/08 06:16:33;;;;;;;5.20;2.92;;;;;;;22.61;57.24;101302.75;1706082;84;21046;-73
2021/08/08 06:19:00;;;;;;;5.58;2.72;;;;;;;22.72;56.89;101296.34;1706058;84;20983;-75
2021/08/08 06:21:28;;;;;;;4.00;2.60;;;;;;;22.84;55.94;101297.67;1705963;84;20992;-77
2021/08/08 06:23:57;;;;;;;6.92;2.60;;;;;;;22.98;55.63;101307.09;1706170;84;21304;-75
2021/08/08 06:26:24;;;;;;;6.62;2.83;;;;;;;23.07;55.78;101306.09;1705900;84;21000;-73
2021/08/08 06:28:53;;;;;;;5.62;2.92;;;;;;;23.16;55.44;101306.93;1706050;84;20853;-76
2021/08/08 06:31:19;;;;;;;4.42;2.75;;;;;;;23.23;55.20;101307.09;1706000;83;21008;-75
2021/08/08 06:33:45;;;;;;;4.25;2.67;;;;;;;23.31;55.10;101301.77;1706074;84;21011;-75
2021/08/08 06:36:12;;;;;;;3.98;2.12;;;;;;;23.41;55.00;101313.05;1705985;84;21556;-75
2021/08/08 06:38:39;;;;;;;3.45;2.52;;;;;;;23.50;54.27;101312.02;1706073;84;21001;-75
2021/08/08 06:41:06;;;;;;;3.60;2.47;;;;;;;23.56;53.54;101317.48;1706169;84;21575;-75
2021/08/08 06:43:33;;;;;;;4.30;2.55;;;;;;;23.62;53.24;101314.14;1706247;84;21035;-75
2021/08/08 06:46:00;;;;;;;4.67;2.25;;;;;;;23.70;53.16;101317.28;1706213;84;20995;-75
2021/08/08 06:48:27;;;;;;;3.42;2.17;;;;;;;23.80;53.16;101318.41;1706335;84;21145;-74
2021/08/08 06:50:55;;;;;;;5.70;2.50;;;;;;;23.87;51.82;101318.06;1706041;84;20921;-76
2021/08/08 06:53:22;;;;;;;3.87;2.30;;;;;;;23.93;50.58;101319.50;1706209;84;20933;-75
2021/08/08 06:55:50;;;;;;;3.92;2.33;;;;;;;24.00;50.63;101319.14;1706284;83;20946;-74
2021/08/08 06:58:17;;;;;;;4.80;2.45;;;;;;;24.06;50.47;101318.98;1706196;84;20968;-75
2021/08/08 07:00:43;;;;;;;2.98;2.40;;;;;;;24.14;50.84;101322.94;1705802;84;21574;-71
2021/08/08 07:03:11;;;;;;;3.55;1.90;;;;;;;24.21;50.25;101318.10;1705671;84;21551;-74
2021/08/08 07:05:38;;;;;;;2.55;2.00;;;;;;;24.29;49.14;101321.69;1706018;84;20991;-73
2021/08/08 07:08:07;;;;;;;5.03;2.60;;;;;;;24.37;48.21;101326.47;1708042;83;21063;-73
2021/08/08 07:10:33;;;;;;;4.08;2.10;;;;;;;24.44;48.36;101320.77;1710529;83;21051;-75
2021/08/08 07:13:00;;;;;;;3.45;2.40;;;;;;;24.52;48.80;101323.88;1710575;83;21500;-74
2021/08/08 07:15:27;;;;;;;4.35;2.27;;;;;;;24.61;48.77;101324.15;1710500;83;21455;-74
2021/08/08 07:17:55;;;;;;;3.33;2.20;;;;;;;24.67;47.37;101324.77;1710347;83;22080;-74
2021/08/08 07:20:22;;;;;;;4.03;2.20;;;;;;;24.71;47.89;101324.25;1710978;83;21035;-74
2021/08/08 07:22:50;;;;;;;3.52;2.08;;;;;;;24.78;47.69;101314.25;1710698;83;20932;-73
2021/08/08 07:25:18;;;;;;;5.17;2.20;;;;;;;24.84;47.12;101319.70;1710599;83;20976;-73
2021/08/08 07:27:45;;;;;;;3.08;2.15;;;;;;;24.91;47.38;101317.16;1710458;83;20924;-75
2021/08/08 07:30:12;;;;;;;4.50;2.08;;;;;;;24.98;46.87;101318.11;1690510;83;21519;-74
2021/08/08 07:32:40;;;;;;;3.70;2.30;;;;;;;25.04;46.96;101319.55;1710469;83;20992;-73
2021/08/08 07:35:08;;;;;;;2.33;2.10;;;;;;;25.12;46.39;101318.14;1710930;83;21073;-76
2021/08/08 07:37:35;;;;;;;3.98;2.42;;;;;;;25.18;45.66;101320.06;1710643;83;21140;-75
2021/08/08 07:40:04;;;;;;;3.47;2.25;;;;;;;25.24;45.65;101318.52;1710295;83;20975;-73
2021/08/08 07:42:31;;;;;;;5.08;2.20;;;;;;;25.30;45.08;101321.80;1714317;83;21447;-75
2021/08/08 07:44:57;;;;;;;5.05;2.40;;;;;;;25.35;45.33;101320.75;1710593;83;21011;-73
2021/08/08 07:47:24;;;;;;;4.50;2.08;;;;;;;25.41;44.99;101321.34;1710711;83;20928;-74
2021/08/08 07:49:51;;;;;;;3.50;2.90;;;;;;;25.48;44.18;101322.28;1710452;83;21127;-75
2021/08/08 07:52:18;;;;;;;8.73;2.50;;;;;;;25.56;43.82;101325.40;1710534;83;20945;-75
2021/08/08 07:54:45;;;;;;;2.75;2.20;;;;;;;25.61;43.70;101321.17;1710815;83;21007;-72
2021/08/08 07:57:12;;;;;;;2.92;2.05;;;;;;;25.70;44.22;101322.73;1710787;83;21593;-75
2021/08/08 07:59:39;;;;;;;6.37;2.58;;;;;;;25.77;44.23;101318.34;1710792;83;20861;-75
2021/08/08 08:02:06;;;;;;;3.47;2.70;;;;;;;25.84;43.77;101314.44;1710929;83;21476;-75
2021/08/08 08:04:32;;;;;;;4.17;2.08;;;;;;;25.92;43.26;101314.82;1710315;83;21573;-75
2021/08/08 08:06:59;;;;;;;4.12;2.20;;;;;;;25.99;43.03;101321.05;1710442;83;21118;-75
2021/08/08 08:09:26;;;;;;;2.72;2.08;;;;;;;26.07;43.28;101322.30;1706596;82;20995;-74
2021/08/08 08:11:54;;;;;;;4.42;2.27;;;;;;;26.13;42.49;101319.69;1706130;84;21557;-74
2021/08/08 08:14:20;;;;;;;4.47;2.42;;;;;;;26.17;42.64;101316.19;1705976;84;21147;-76
2021/08/08 08:16:48;;;;;;;4.92;2.00;;;;;;;26.22;42.42;101313.31;1705890;84;20948;-72
2021/08/08 08:19:15;;;;;;;2.45;2.10;;;;;;;26.30;42.18;101315.02;1705997;83;20905;-76
2021/08/08 08:21:44;;;;;;;4.80;2.37;;;;;;;26.36;41.36;101316.13;1705781;84;20865;-75
2021/08/08 08:24:11;;;;;;;3.70;2.40;;;;;;;26.40;41.44;101314.71;1706140;84;36031;-73
2021/08/08 08:26:38;;;;;;;3.20;1.98;;;;;;;26.46;41.97;101309.45;1706055;84;21817;-75
2021/08/08 08:29:06;;;;;;;2.77;1.90;;;;;;;26.54;41.01;101309.86;1706206;84;20944;-75
2021/08/08 08:31:34;;;;;;;3.75;2.10;;;;;;;26.57;40.46;101308.97;1706092;84;20932;-73
2021/08/08 08:34:02;;;;;;;3.00;2.22;;;;;;;26.61;40.88;101307.56;1705919;84;21035;-75
2021/08/08 08:36:28;;;;;;;3.10;2.02;;;;;;;26.68;40.73;101304.45;1706344;83;21031;-76
2021/08/08 08:38:56;;;;;;;4.70;1.80;;;;;;;26.77;40.38;101302.52;1709959;83;21216;-83
2021/08/08 08:41:31;;;;;;;2.65;1.75;;;;;;;26.85;40.18;101306.89;1706064;84;21072;-79
2021/08/08 08:43:59;;;;;;;2.55;1.90;;;;;;;26.91;38.49;101303.46;1705705;84;20937;-78
2021/08/08 08:46:27;;;;;;;2.20;1.98;;;;;;;26.93;38.33;101298.25;1705995;84;21132;-79
2021/08/08 08:48:56;;;;;;;5.47;2.12;;;;;;;26.94;37.65;101305.73;1706169;84;20944;-73
2021/08/08 08:51:33;;;;;;;3.55;2.00;;;;;;;26.95;37.32;101303.41;1706454;84;21126;-75
2021/08/08 08:54:00;;;;;;;5.05;2.12;;;;;;;26.93;37.73;101302.25;1705897;84;21004;-74
2021/08/08 08:56:30;;;;;;;7.92;1.87;;;;;;;27.00;38.59;101292.48;1706096;84;20991;-76
2021/08/08 08:58:58;;;;;;;2.83;2.52;;;;;;;27.09;38.51;101293.98;1708916;83;21003;-76
2021/08/08 09:01:26;;;;;;;4.53;3.30;;;;;;;27.18;37.21;101294.17;1706289;84;21015;-75
2021/08/08 09:03:53;;;;;;;4.78;2.92;;;;;;;27.30;37.74;101298.45;1705878;84;21130;-75
2021/08/08 09:06:20;;;;;;;4.15;1.98;;;;;;;27.42;37.70;101296.05;1706279;84;21408;-78
2021/08/08 09:08:46;;;;;;;6.42;2.12;;;;;;;27.54;37.15;101301.20;1705664;83;20900;-76
2021/08/08 09:11:14;;;;;;;2.37;1.75;;;;;;;27.61;37.26;101302.88;1706086;84;20940;-75
2021/08/08 09:13:57;;;;;;;2.22;1.75;;;;;;;27.69;36.36;101299.23;1706076;84;21015;-73
2021/08/08 09:16:26;;;;;;;3.67;1.90;;;;;;;27.65;35.83;101289.97;1706178;83;21147;-75
2021/08/08 09:18:55;;;;;;;2.95;1.70;;;;;;;27.69;36.22;101289.89;1706030;84;21015;-73
2021/08/08 09:21:24;;;;;;;2.30;1.70;;;;;;;27.74;34.67;101288.27;1706129;83;20996;-81
2021/08/08 09:23:57;;;;;;;2.87;1.80;;;;;;;27.74;35.49;101288.27;1705974;84;20916;-82
2021/08/08 09:26:36;;;;;;;2.20;1.92;;;;;;;27.80;35.73;101287.98;1706160;84;21023;-79
2021/08/08 09:29:13;;;;;;;2.10;1.90;;;;;;;27.89;35.44;101289.99;1705823;84;21070;-74
2021/08/08 09:31:49;;;;;;;4.70;1.70;;;;;;;27.96;35.25;101288.15;1705975;84;20987;-77
2021/08/08 09:34:24;;;;;;;3.52;2.10;;;;;;;28.04;34.70;101282.66;1706184;84;20984;-75
2021/08/08 09:36:53;;;;;;;1.67;1.52;;;;;;;28.10;35.35;101283.22;1705992;84;21530;-73
2021/08/08 09:39:32;;;;;;;5.05;2.08;;;;;;;28.23;35.03;101285.42;1705749;84;21420;-74
2021/08/08 09:42:22;;;;;;;2.02;1.85;;;;;;;28.34;35.33;101274.14;1706094;84;21529;-76
2021/08/08 09:45:01;;;;;;;5.30;2.00;;;;;;;28.47;35.38;101266.66;1705955;84;20957;-78
2021/08/08 09:47:43;;;;;;;2.50;2.17;;;;;;;28.60;35.78;101268.02;1706104;84;21583;-81
2021/08/08 09:50:16;;;;;;;5.60;2.02;;;;;;;28.68;34.31;101270.53;1706379;84;20916;-79
2021/08/08 09:52:54;;;;;;;4.35;2.10;;;;;;;28.60;35.35;101265.34;1706206;84;21036;-78
2021/08/08 09:55:31;;;;;;;3.85;2.00;;;;;;;28.69;36.20;101265.99;1706102;84;21972;-79
2021/08/08 09:57:58;;;;;;;3.58;1.80;;;;;;;28.81;35.44;101265.17;1705424;83;21000;-72
2021/08/08 10:00:30;;;;;;;2.42;2.00;;;;;;;29.08;34.79;101267.84;1706276;84;20947;-74
2021/08/08 10:02:58;;;;;;;3.90;1.92;;;;;;;30.20;33.75;101265.14;1706166;83;21538;-81
2021/08/08 10:05:25;;;;;;;3.15;1.80;;;;;;;31.58;31.31;101262.68;1706996;84;20908;-75
2021/08/08 10:07:54;;;;;;;7.10;2.08;;;;;;;32.16;30.12;101260.30;1707008;84;21066;-77
2021/08/08 10:10:21;;;;;;;4.28;2.10;;;;;;;32.61;28.91;101254.48;1706862;83;21605;-76
2021/08/08 10:12:56;;;;;;;2.40;1.77;;;;;;;33.44;28.87;101253.73;1708859;82;20885;-75
2021/08/08 10:15:23;;;;;;;3.02;2.20;;;;;;;34.73;27.17;101252.12;1708912;84;20992;-77
2021/08/08 10:17:50;;;;;;;2.95;2.17;;;;;;;35.69;25.90;101248.09;1709124;84;20916;-77
2021/08/08 10:20:16;;;;;;;3.70;2.27;;;;;;;36.35;24.96;101245.00;1706223;84;21173;-73
2021/08/08 10:22:43;;;;;;;6.60;2.62;;;;;;;36.89;24.33;101243.56;1706048;84;21366;-74
2021/08/08 10:25:11;;;;;;;4.58;2.33;;;;;;;36.93;24.59;101240.59;1706353;84;20857;-75
2021/08/08 10:27:37;;;;;;;3.05;2.15;;;;;;;36.83;24.96;101237.81;1706195;83;20996;-75
2021/08/08 10:30:07;;;;;;;2.90;2.60;;;;;;;36.97;24.46;101243.06;1706181;83;21039;-76
2021/08/08 10:32:34;;;;;;;3.67;2.17;;;;;;;36.57;24.36;101233.59;1685694;84;21151;-74
2021/08/08 10:35:16;;;;;;;1.98;1.82;;;;;;;35.88;24.67;101230.48;1686234;84;21423;-75
2021/08/08 10:37:44;;;;;;;5.75;2.08;;;;;;;35.29;25.63;101230.33;1705922;84;21028;-77
2021/08/08 10:40:12;;;;;;;2.08;1.90;;;;;;;34.80;26.15;101227.98;1706294;84;20961;-74
2021/08/08 10:42:45;;;;;;;3.00;2.52;;;;;;;34.50;26.21;101237.72;1706052;84;20872;-78
2021/08/08 10:45:24;;;;;;;4.45;2.58;;;;;;;33.95;26.97;101235.39;1706097;84;21148;-81
2021/08/08 10:47:58;;;;;;;5.85;2.62;;;;;;;33.30;27.59;101230.30;1704877;84;21586;-71
2021/08/08 10:50:48;;;;;;;3.58;2.40;;;;;;;32.63;28.46;101236.25;1706069;84;21025;-74
2021/08/08 10:53:29;;;;;;;3.17;2.20;;;;;;;31.98;29.36;101230.77;1706087;84;21774;-84
2021/08/08 10:56:11;;;;;;;2.98;2.33;;;;;;;31.42;29.95;101229.71;1706218;84;20991;-73
2021/08/08 10:58:44;;;;;;;4.60;2.40;;;;;;;31.24;30.37;101227.83;1706261;84;21794;-75
2021/08/08 11:01:18;;;;;;;4.97;2.22;;;;;;;31.15;30.63;101227.83;1706180;84;21011;-79
2021/08/08 11:03:55;;;;;;;6.47;3.25;;;;;;;31.00;30.90;101230.57;1706110;84;21502;-73
2021/08/08 11:06:26;;;;;;;3.00;2.40;;;;;;;30.74;31.26;101234.28;1706391;84;21634;-77
2021/08/08 11:08:56;;;;;;;2.58;2.37;;;;;;;30.52;32.23;101239.20;1686490;84;21174;-76
2021/08/08 11:11:34;;;;;;;2.87;2.05;;;;;;;30.50;32.43;101238.61;1706191;84;21095;-79
2021/08/08 11:14:15;;;;;;;2.30;2.00;;;;;;;30.54;32.48;101232.30;1706166;84;20933;-78
2021/08/08 11:16:47;;;;;;;3.05;1.92;;;;;;;30.58;31.55;101234.83;1706276;84;20995;-74
2021/08/08 11:19:14;;;;;;;2.83;2.20;;;;;;;30.67;32.09;101225.47;1704505;83;21090;-75
2021/08/08 11:21:43;;;;;;;2.40;2.20;;;;;;;30.82;30.91;101217.94;1706098;84;20948;-79
2021/08/08 11:24:11;;;;;;;2.52;2.20;;;;;;;30.91;30.64;101217.95;1706341;84;21981;-75
2021/08/08 11:26:38;;;;;;;5.37;2.42;;;;;;;30.81;31.51;101220.31;1706096;83;20892;-78
2021/08/08 11:29:06;;;;;;;3.70;2.50;;;;;;;30.70;31.19;101225.03;1705958;84;20999;-82
2021/08/08 11:31:35;;;;;;;4.53;2.60;;;;;;;30.79;30.70;101223.20;1706123;84;20948;-77